Time;durP1;ratioP1;P1;durP2;ratioP2;P2;SDS_P1;SDS_P2;PMS_P1;PMS_P2;Temp;Humidity;BMP_temperature;BMP_pressure;BME280_temperature;BME280_humidity;BME280_pressure;Samples;Min_cycle;Max_cycle;Signal;HPM_P1;HPM_P2
2022/12/22 03:27:43;;;;;;;15.23;9.93;;;9.90;99.90;;;;;;4952857;28;20419;-79
2022/12/22 03:30:11;;;;;;;16.75;11.15;;;9.90;99.90;;;;;;4945306;28;20050;-79
2022/12/22 03:32:38;;;;;;;17.27;10.60;;;9.80;99.90;;;;;;4976205;28;20824;-79
2022/12/22 03:35:06;;;;;;;14.52;10.73;;;9.90;99.90;;;;;;4931988;29;20441;-79
2022/12/22 03:37:34;;;;;;;18.67;11.43;;;9.90;99.90;;;;;;4964209;28;20074;-78
2022/12/22 03:40:01;;;;;;;19.20;12.40;;;9.90;99.90;;;;;;4962595;28;20048;-78
2022/12/22 03:48:00;;;;;;;18.48;12.95;;;9.80;99.90;;;;;;4949035;28;20929;-78
2022/12/22 03:50:28;;;;;;;20.10;12.48;;;9.80;99.90;;;;;;4942742;28;20090;-78
2022/12/22 03:52:55;;;;;;;17.27;12.73;;;9.80;99.90;;;;;;4969847;28;20672;-76
2022/12/22 03:55:23;;;;;;;19.70;12.90;;;9.80;99.90;;;;;;4981681;28;20530;-77
2022/12/22 03:57:50;;;;;;;17.83;11.90;;;9.80;99.90;;;;;;4957244;28;20921;-77
2022/12/22 04:00:18;;;;;;;20.45;13.55;;;9.80;99.90;;;;;;4960449;28;20454;-78
2022/12/22 04:02:46;;;;;;;19.05;12.57;;;9.80;99.90;;;;;;4952221;28;20046;-78
2022/12/22 04:05:14;;;;;;;17.65;12.27;;;9.80;99.90;;;;;;4954741;28;20569;-78
2022/12/22 04:07:41;;;;;;;17.92;12.88;;;9.80;99.90;;;;;;4965242;28;20135;-76
2022/12/22 04:12:55;;;;;;;19.40;13.57;;;9.70;99.90;;;;;;4961546;28;20050;-76
2022/12/22 04:15:28;;;;;;;18.42;13.85;;;9.70;99.90;;;;;;4982307;28;20108;-77
2022/12/22 04:17:57;;;;;;;21.63;13.68;;;9.70;99.90;;;;;;4957992;28;20485;-76
2022/12/22 04:20:26;;;;;;;19.70;13.27;;;9.70;99.90;;;;;;4972144;28;20160;-76
2022/12/22 04:22:57;;;;;;;18.40;13.63;;;9.70;99.90;;;;;;4965402;28;20049;-77
2022/12/22 04:25:25;;;;;;;19.23;11.27;;;9.60;99.90;;;;;;4953967;28;20047;-77
2022/12/22 04:27:52;;;;;;;23.83;14.75;;;9.50;99.90;;;;;;4967327;28;20082;-77
2022/12/22 04:30:20;;;;;;;18.08;12.85;;;9.50;99.90;;;;;;4972384;28;20043;-77
2022/12/22 04:32:47;;;;;;;21.17;14.13;;;9.40;99.90;;;;;;4955311;28;20063;-78
2022/12/22 04:35:15;;;;;;;18.00;12.93;;;9.30;99.90;;;;;;4971534;28;20153;-76
2022/12/22 04:37:42;;;;;;;16.48;11.70;;;9.30;99.90;;;;;;4969631;28;20051;-77
2022/12/22 04:40:10;;;;;;;15.38;10.43;;;9.30;99.90;;;;;;4953504;28;20047;-77
2022/12/22 04:42:37;;;;;;;21.73;12.15;;;9.30;99.90;;;;;;4936701;28;20086;-77
2022/12/22 04:45:05;;;;;;;20.67;12.02;;;9.30;99.90;;;;;;4971429;28;20146;-77
2022/12/22 04:47:33;;;;;;;18.88;12.35;;;9.30;99.90;;;;;;4971536;28;20039;-77
2022/12/22 04:50:00;;;;;;;18.33;11.75;;;9.30;99.90;;;;;;4971187;28;20090;-78
2022/12/22 04:52:28;;;;;;;18.23;12.23;;;9.30;99.90;;;;;;4971533;28;20078;-77
2022/12/22 04:54:55;;;;;;;25.50;15.13;;;9.20;99.90;;;;;;4952625;28;20058;-77
2022/12/22 04:57:23;;;;;;;18.65;12.65;;;9.00;99.90;;;;;;4947115;28;20105;-77
2022/12/22 04:59:50;;;;;;;21.67;13.40;;;8.90;99.90;;;;;;4970500;28;20082;-77
2022/12/22 05:02:18;;;;;;;19.88;12.90;;;8.90;99.90;;;;;;4955594;28;20050;-77
2022/12/22 05:04:45;;;;;;;21.83;13.98;;;8.80;99.90;;;;;;4937499;29;20075;-77
2022/12/22 05:07:12;;;;;;;20.58;13.85;;;8.70;99.90;;;;;;4946078;28;20042;-77
2022/12/22 05:09:40;;;;;;;21.33;15.90;;;8.70;99.90;;;;;;4954469;28;20061;-78
2022/12/22 05:14:53;;;;;;;18.60;13.55;;;8.60;99.90;;;;;;4952838;28;20051;-77
2022/12/22 05:17:21;;;;;;;25.15;16.10;;;8.50;99.90;;;;;;4947644;28;20544;-77
2022/12/22 05:19:48;;;;;;;24.23;16.42;;;8.50;99.90;;;;;;4970664;28;20042;-77
2022/12/22 05:22:16;;;;;;;24.13;15.82;;;8.40;99.90;;;;;;4971874;28;20556;-77
2022/12/22 05:24:44;;;;;;;23.88;15.90;;;8.30;99.90;;;;;;4953664;28;20054;-77
2022/12/22 05:27:11;;;;;;;26.17;17.90;;;8.20;99.90;;;;;;4960393;28;20576;-77
2022/12/22 05:29:39;;;;;;;21.92;16.23;;;8.10;99.90;;;;;;4970348;28;20051;-77
2022/12/22 05:32:06;;;;;;;28.90;17.20;;;8.10;99.90;;;;;;4971519;28;20420;-77
2022/12/22 05:34:35;;;;;;;29.13;16.35;;;8.10;99.90;;;;;;4956422;28;20461;-77
2022/12/22 05:37:02;;;;;;;25.23;17.80;;;8.10;99.90;;;;;;4959991;28;20053;-77
2022/12/22 05:39:30;;;;;;;29.20;16.58;;;8.10;99.90;;;;;;4969670;28;20408;-77
2022/12/22 05:41:57;;;;;;;26.70;16.77;;;8.10;99.90;;;;;;4971677;28;20074;-77
2022/12/22 05:44:25;;;;;;;24.20;15.00;;;8.10;99.90;;;;;;4957001;28;20590;-77
2022/12/22 05:46:52;;;;;;;23.05;16.23;;;8.10;99.90;;;;;;4959487;28;20055;-77
2022/12/22 05:49:20;;;;;;;28.58;16.65;;;8.00;99.90;;;;;;4972146;28;20034;-78
2022/12/22 05:51:48;;;;;;;23.10;16.20;;;8.00;99.90;;;;;;4969515;28;20039;-78
2022/12/22 05:54:16;;;;;;;23.02;14.60;;;8.00;99.90;;;;;;4954476;28;20057;-77
2022/12/22 05:56:43;;;;;;;22.98;16.73;;;8.00;99.90;;;;;;4970415;28;20054;-77
2022/12/22 05:59:11;;;;;;;25.08;14.85;;;8.00;99.90;;;;;;4970369;28;20042;-77
2022/12/22 06:01:38;;;;;;;20.98;15.27;;;8.00;99.90;;;;;;4970009;28;20050;-77
2022/12/22 06:04:06;;;;;;;26.23;15.88;;;8.00;99.90;;;;;;4943162;29;20391;-77
2022/12/22 06:06:34;;;;;;;33.17;16.80;;;8.00;99.90;;;;;;4954913;28;20141;-77
2022/12/22 06:09:01;;;;;;;20.60;14.73;;;8.00;99.90;;;;;;4971279;28;20082;-77
2022/12/22 06:11:29;;;;;;;23.85;14.93;;;8.00;99.90;;;;;;4971446;28;20047;-77
2022/12/22 06:13:56;;;;;;;23.92;14.57;;;8.00;99.90;;;;;;4960169;28;20110;-77
2022/12/22 06:16:24;;;;;;;25.98;16.38;;;8.00;99.90;;;;;;4937948;28;20051;-77
2022/12/22 06:18:51;;;;;;;26.38;16.58;;;8.00;99.90;;;;;;4971379;28;20055;-77
2022/12/22 06:21:19;;;;;;;24.58;17.70;;;8.10;99.90;;;;;;4963207;28;20434;-77
2022/12/22 06:23:46;;;;;;;24.55;16.92;;;8.20;99.90;;;;;;4954097;28;20042;-77
2022/12/22 06:26:14;;;;;;;23.42;17.00;;;8.30;99.90;;;;;;4970513;28;20564;-77
2022/12/22 06:28:41;;;;;;;24.30;14.95;;;8.50;99.90;;;;;;4969855;28;20050;-78
2022/12/22 06:31:08;;;;;;;21.92;15.35;;;8.90;99.90;;;;;;4953040;28;20406;-78
2022/12/22 06:33:36;;;;;;;26.58;13.82;;;9.40;99.90;;;;;;4962924;28;20058;-76
2022/12/22 06:36:05;;;;;;;22.52;14.82;;;9.80;99.90;;;;;;4951578;28;20053;-77
2022/12/22 06:38:33;;;;;;;24.17;14.77;;;10.20;99.90;;;;;;4971020;28;20062;-77
2022/12/22 06:41:01;;;;;;;20.98;13.40;;;10.70;99.90;;;;;;4966105;28;20385;-76
2022/12/22 06:43:28;;;;;;;23.33;13.50;;;11.10;99.90;;;;;;4965218;28;20466;-76
2022/12/22 06:45:56;;;;;;;22.38;13.88;;;11.50;99.90;;;;;;4951024;29;20054;-76
2022/12/22 06:48:23;;;;;;;18.35;14.75;;;11.80;99.90;;;;;;4968343;28;20117;-76
2022/12/22 06:50:55;;;;;;;17.85;12.48;;;12.50;99.90;;;;;;4969913;28;20054;-76
2022/12/22 06:53:23;;;;;;;15.73;11.10;;;13.20;99.90;;;;;;4966384;28;20434;-76
2022/12/22 06:55:50;;;;;;;18.70;11.82;;;13.10;99.90;;;;;;4934170;29;20055;-78
2022/12/22 06:58:18;;;;;;;17.35;11.23;;;12.80;99.90;;;;;;4967413;28;20043;-77
2022/12/22 07:00:48;;;;;;;18.70;12.23;;;12.60;99.90;;;;;;4953099;28;20797;-76
2022/12/22 07:03:16;;;;;;;18.13;11.40;;;13.10;99.90;;;;;;4965771;28;20054;-76
2022/12/22 07:05:43;;;;;;;16.83;10.82;;;13.60;99.90;;;;;;4950007;28;20447;-77
2022/12/22 07:08:11;;;;;;;11.95;9.68;;;14.30;99.90;;;;;;4965711;28;20051;-77
2022/12/22 07:10:56;;;;;;;18.25;11.15;;;14.90;99.90;;;;;;4968299;28;20057;-78
2022/12/22 07:13:27;;;;;;;15.75;10.30;;;15.90;99.90;;;;;;4964746;28;20150;-77
2022/12/22 07:15:55;;;;;;;16.50;8.85;;;16.60;99.90;;;;;;4949489;29;20078;-77
2022/12/22 07:18:28;;;;;;;14.75;9.43;;;16.70;99.90;;;;;;4969365;28;20812;-76
2022/12/22 07:20:55;;;;;;;13.52;9.15;;;17.30;99.90;;;;;;4968837;28;20101;-76
2022/12/22 07:23:23;;;;;;;16.55;9.40;;;18.10;99.90;;;;;;4970229;28;20082;-76
2022/12/22 07:25:51;;;;;;;13.85;8.38;;;18.60;99.90;;;;;;4968873;28;20171;-76
2022/12/22 07:28:18;;;;;;;12.95;7.78;;;18.10;99.90;;;;;;4951850;28;20787;-76
2022/12/22 07:30:48;;;;;;;13.68;7.90;;;17.40;99.90;;;;;;4950568;28;20524;-78
2022/12/22 07:33:15;;;;;;;18.50;9.10;;;17.30;99.90;;;;;;4936554;28;20212;-76
2022/12/22 07:35:43;;;;;;;12.77;9.25;;;18.10;99.90;;;;;;4969732;28;20051;-77
2022/12/22 07:38:12;;;;;;;14.85;9.18;;;19.00;99.90;;;;;;4954604;28;20066;-76
2022/12/22 07:40:39;;;;;;;16.27;8.20;;;19.90;99.90;;;;;;4951118;28;20051;-76
2022/12/22 07:43:08;;;;;;;12.05;7.50;;;20.70;99.90;;;;;;4952526;28;20040;-76
2022/12/22 07:45:35;;;;;;;12.57;10.13;;;21.20;99.90;;;;;;4969976;28;20505;-78
2022/12/22 07:50:23;;;;;;;13.73;9.32;;;21.30;99.70;;;;;;4955475;28;20040;-76
2022/12/22 07:50:51;;;;;;;10.77;7.68;;;21.50;99.90;;;;;;4950823;28;20058;-76
2022/12/22 07:53:18;;;;;;;11.20;6.70;;;21.70;99.50;;;;;;4950394;28;20054;-76
2022/12/22 07:55:46;;;;;;;11.43;8.18;;;21.70;99.60;;;;;;4948908;29;20054;-77
2022/12/22 07:58:13;;;;;;;10.45;7.53;;;21.60;99.50;;;;;;4966591;28;20105;-75
2022/12/22 08:00:41;;;;;;;10.10;7.35;;;21.50;99.50;;;;;;4970705;28;20069;-75
2022/12/22 08:03:08;;;;;;;9.50;7.50;;;21.40;99.80;;;;;;4973597;28;20043;-75
2022/12/22 08:05:37;;;;;;;9.30;6.18;;;21.20;99.90;;;;;;4972061;28;20089;-77
2022/12/22 08:08:04;;;;;;;10.52;6.10;;;21.10;99.90;;;;;;4957749;28;20067;-75
2022/12/22 08:10:32;;;;;;;10.02;7.07;;;20.90;99.90;;;;;;4953617;28;20534;-78
2022/12/22 08:13:00;;;;;;;10.27;6.18;;;20.80;99.90;;;;;;4965260;28;20119;-76
2022/12/22 08:15:28;;;;;;;8.45;6.57;;;20.60;99.90;;;;;;4959715;28;20774;-75
2022/12/22 08:17:55;;;;;;;7.57;5.20;;;20.50;99.90;;;;;;4970752;28;20051;-78
2022/12/22 08:20:23;;;;;;;7.40;5.88;;;20.40;99.90;;;;;;4968424;28;20047;-75
2022/12/22 08:22:50;;;;;;;7.88;5.18;;;20.30;99.90;;;;;;4962741;28;20053;-77
2022/12/22 08:25:18;;;;;;;9.05;5.32;;;20.10;99.90;;;;;;4979851;28;20393;-75
2022/12/22 08:27:50;;;;;;;7.70;6.05;;;19.90;99.90;;;;;;4966193;28;20082;-76
2022/12/22 08:30:18;;;;;;;7.28;5.38;;;19.80;99.90;;;;;;4963807;28;20039;-75
2022/12/22 08:32:48;;;;;;;9.85;7.07;;;19.70;99.90;;;;;;4952686;28;20062;-76
2022/12/22 08:35:16;;;;;;;9.65;6.65;;;19.50;99.90;;;;;;4969180;28;20039;-76
2022/12/22 08:37:46;;;;;;;8.95;5.47;;;19.30;99.90;;;;;;4967616;28;20405;-75
2022/12/22 08:40:24;;;;;;;8.13;6.70;;;19.00;99.90;;;;;;4963141;28;20047;-75
2022/12/22 08:42:57;;;;;;;7.35;6.25;;;18.70;99.90;;;;;;4942661;28;20050;-76
2022/12/22 08:45:25;;;;;;;10.35;7.00;;;18.40;99.90;;;;;;4962318;28;20592;-76
2022/12/22 08:47:53;;;;;;;10.02;6.13;;;18.20;99.90;;;;;;4962485;28;20039;-78
2022/12/22 08:50:20;;;;;;;10.18;6.95;;;18.10;99.90;;;;;;4970670;28;20461;-76
2022/12/22 08:52:48;;;;;;;9.23;7.22;;;18.00;99.90;;;;;;4954058;28;20081;-77
2022/12/22 08:55:16;;;;;;;8.32;6.80;;;17.90;99.90;;;;;;4963704;28;20093;-77
2022/12/22 08:57:49;;;;;;;9.80;6.55;;;17.80;99.90;;;;;;4967042;28;20078;-79
2022/12/22 09:00:20;;;;;;;8.82;6.05;;;17.70;99.90;;;;;;4963990;28;20050;-76
2022/12/22 09:02:48;;;;;;;9.55;5.90;;;17.80;99.90;;;;;;4956627;28;20074;-76
2022/12/22 09:05:15;;;;;;;7.05;5.82;;;17.90;99.90;;;;;;4965439;28;20130;-77
2022/12/22 09:07:45;;;;;;;7.38;5.22;;;17.90;99.90;;;;;;4967797;28;20062;-76
2022/12/22 09:10:13;;;;;;;6.53;5.20;;;18.00;99.90;;;;;;4968877;28;20485;-76
2022/12/22 09:12:41;;;;;;;7.75;5.00;;;18.10;99.90;;;;;;4967509;28;20475;-78
2022/12/22 09:15:08;;;;;;;6.63;4.85;;;18.20;99.90;;;;;;4963840;28;20053;-75
2022/12/22 09:17:36;;;;;;;6.68;4.78;;;18.20;99.90;;;;;;4963148;28;20039;-76
2022/12/22 09:20:05;;;;;;;6.20;4.18;;;18.20;99.90;;;;;;4918576;28;20519;-76
2022/12/22 09:22:33;;;;;;;8.35;4.85;;;18.20;99.90;;;;;;4964813;28;20081;-77
2022/12/22 09:25:00;;;;;;;8.55;5.93;;;18.30;99.90;;;;;;4944084;28;20054;-76
2022/12/22 09:27:29;;;;;;;7.80;5.10;;;18.40;99.90;;;;;;4962602;28;20042;-78
2022/12/22 09:29:57;;;;;;;8.48;5.25;;;18.40;99.90;;;;;;4969391;28;20085;-76
2022/12/22 09:32:24;;;;;;;5.97;4.72;;;18.40;99.90;;;;;;4968110;28;20058;-77
2022/12/22 09:34:52;;;;;;;8.77;5.03;;;18.40;99.90;;;;;;4966014;28;20069;-76
2022/12/22 09:37:19;;;;;;;8.18;5.43;;;18.20;99.90;;;;;;4969954;28;20533;-76
2022/12/22 09:39:47;;;;;;;11.93;6.57;;;17.80;99.90;;;;;;4967242;28;20125;-75
2022/12/22 09:42:19;;;;;;;8.77;5.40;;;17.70;99.90;;;;;;4969845;28;20047;-77
2022/12/22 09:44:50;;;;;;;8.27;5.28;;;17.50;99.90;;;;;;4971249;28;20051;-77
2022/12/22 09:47:34;;;;;;;8.63;5.35;;;17.40;99.90;;;;;;4971692;28;20039;-76
2022/12/22 09:50:04;;;;;;;8.65;5.50;;;17.30;99.90;;;;;;4970173;28;20177;-76
2022/12/22 09:52:35;;;;;;;8.48;5.82;;;17.20;99.90;;;;;;4969908;28;20466;-78
2022/12/22 09:55:12;;;;;;;9.35;6.35;;;17.10;99.90;;;;;;4961490;28;20051;-76
2022/12/22 09:57:40;;;;;;;9.40;6.10;;;17.10;99.90;;;;;;4969846;28;20153;-76
2022/12/22 10:00:16;;;;;;;9.18;5.63;;;17.20;99.90;;;;;;4970359;28;20055;-77
2022/12/22 10:03:26;;;;;;;8.15;6.45;;;17.20;99.90;;;;;;4962565;28;20789;-76
2022/12/22 10:06:06;;;;;;;8.73;5.97;;;17.50;99.90;;;;;;4945136;28;20051;-76
2022/12/22 10:08:35;;;;;;;9.27;5.63;;;17.70;99.90;;;;;;4969804;28;20059;-75
2022/12/22 10:11:03;;;;;;;10.20;4.82;;;17.90;99.90;;;;;;4971036;28;20050;-76
2022/12/22 10:13:31;;;;;;;6.40;4.35;;;18.00;99.90;;;;;;4963873;28;20115;-75
2022/12/22 10:15:59;;;;;;;6.20;4.57;;;18.00;99.90;;;;;;4969489;28;20077;-76
2022/12/22 10:18:28;;;;;;;6.07;4.35;;;17.50;99.90;;;;;;4955619;28;20043;-76
2022/12/22 10:21:12;;;;;;;7.57;5.35;;;17.50;99.90;;;;;;4966500;28;20464;-75
2022/12/22 10:23:44;;;;;;;5.13;3.67;;;17.60;99.90;;;;;;4953189;28;20061;-75
2022/12/22 10:26:21;;;;;;;8.52;5.00;;;17.50;99.90;;;;;;4969618;28;20065;-77
2022/12/22 10:29:15;;;;;;;7.57;4.82;;;17.40;99.90;;;;;;4970147;28;20043;-75
2022/12/22 10:32:01;;;;;;;7.33;5.23;;;17.40;99.90;;;;;;4968491;28;20568;-77
2022/12/22 10:34:29;;;;;;;8.23;4.57;;;17.40;99.90;;;;;;4969729;28;20286;-75
2022/12/22 10:37:03;;;;;;;10.93;4.95;;;17.60;99.90;;;;;;4969273;28;20375;-76
2022/12/22 10:39:35;;;;;;;6.63;4.40;;;17.80;99.90;;;;;;4967493;28;20047;-76
2022/12/22 10:42:13;;;;;;;6.78;4.15;;;18.00;99.90;;;;;;4970656;28;20043;-76
2022/12/22 10:44:46;;;;;;;6.75;4.82;;;18.00;99.90;;;;;;4955897;28;20066;-76
2022/12/22 10:47:20;;;;;;;8.13;4.45;;;18.30;99.90;;;;;;4969522;28;20137;-76
2022/12/22 10:49:59;;;;;;;6.88;4.72;;;18.40;99.90;;;;;;4947820;28;20043;-76
2022/12/22 10:52:30;;;;;;;8.07;4.22;;;18.20;99.90;;;;;;4968019;28;20086;-76
2022/12/22 10:55:25;;;;;;;6.43;4.22;;;18.10;99.90;;;;;;4965897;28;20054;-76
2022/12/22 10:58:16;;;;;;;6.72;4.82;;;18.10;99.90;;;;;;4953833;28;20062;-77
2022/12/22 11:00:58;;;;;;;7.47;5.00;;;18.20;99.90;;;;;;4951267;28;20047;-77
2022/12/22 11:03:30;;;;;;;6.57;4.78;;;18.30;99.90;;;;;;4951302;29;20043;-75
2022/12/22 11:06:00;;;;;;;6.57;4.15;;;18.30;99.90;;;;;;4949883;28;20059;-76
2022/12/22 11:08:30;;;;;;;8.55;5.72;;;18.20;99.90;;;;;;4967078;28;20039;-76
2022/12/22 11:11:26;;;;;;;7.70;5.18;;;18.10;99.90;;;;;;4967534;28;20051;-75
2022/12/22 11:14:02;;;;;;;7.37;5.80;;;18.00;99.90;;;;;;4969525;28;20039;-77
2022/12/22 11:16:56;;;;;;;8.55;6.25;;;18.10;99.90;;;;;;4968824;28;20055;-76
2022/12/22 11:19:50;;;;;;;9.57;4.57;;;18.20;99.90;;;;;;4947437;29;20070;-76
2022/12/22 11:22:41;;;;;;;6.47;3.83;;;18.40;99.90;;;;;;4949054;28;20105;-76
2022/12/22 11:25:12;;;;;;;4.80;3.47;;;18.70;99.90;;;;;;4968403;28;20039;-75
2022/12/22 11:28:13;;;;;;;5.78;3.75;;;18.90;99.90;;;;;;4964256;28;20043;-76
2022/12/22 11:31:07;;;;;;;6.00;3.63;;;19.00;99.90;;;;;;4968737;28;20046;-75
2022/12/22 11:33:44;;;;;;;5.45;3.88;;;18.70;99.90;;;;;;4969002;28;20069;-78
2022/12/22 11:36:25;;;;;;;4.90;3.38;;;18.70;99.90;;;;;;4970229;28;20046;-77
2022/12/22 11:39:15;;;;;;;4.95;3.47;;;18.70;99.90;;;;;;4956672;28;20039;-76
2022/12/22 11:41:51;;;;;;;5.70;3.40;;;18.70;99.90;;;;;;4973527;28;20046;-76
2022/12/22 11:44:18;;;;;;;;;;;18.50;99.90;;;;;;4974047;28;20050;-76
2022/12/22 11:47:02;;;;;;;4.43;3.33;;;18.20;99.90;;;;;;4971530;28;19922;-76
2022/12/22 11:49:48;;;;;;;4.13;3.60;;;18.00;99.90;;;;;;4956461;28;20074;-75
2022/12/22 11:52:44;;;;;;;4.80;3.83;;;17.80;99.90;;;;;;4955622;28;20044;-75
2022/12/22 11:55:36;;;;;;;7.65;3.83;;;17.70;99.90;;;;;;4972375;28;20055;-76
2022/12/22 11:58:13;;;;;;;7.10;3.65;;;17.50;99.90;;;;;;4970096;28;20181;-76
2022/12/22 12:00:59;;;;;;;5.65;3.80;;;17.40;99.90;;;;;;4952896;29;20371;-75
2022/12/22 12:04:20;;;;;;;8.90;4.22;;;17.40;99.90;;;;;;4965730;28;20134;-76
2022/12/22 12:07:09;;;;;;;5.75;4.07;;;17.20;99.90;;;;;;4969259;28;20046;-76
2022/12/22 12:09:52;;;;;;;8.32;5.13;;;17.20;99.90;;;;;;4955867;28;20051;-76
2022/12/22 12:12:49;;;;;;;6.15;4.40;;;17.30;99.90;;;;;;4948784;29;20055;-76
2022/12/22 12:15:33;;;;;;;8.43;4.93;;;17.30;99.90;;;;;;4943085;29;20078;-76
2022/12/22 12:18:23;;;;;;;6.45;3.72;;;17.30;99.90;;;;;;4970495;28;20150;-75
2022/12/22 12:21:26;;;;;;;6.55;4.45;;;17.20;99.90;;;;;;4955476;28;20409;-75
2022/12/22 12:24:24;;;;;;;9.02;5.30;;;17.30;99.90;;;;;;4951990;28;20046;-76
2022/12/22 12:27:12;;;;;;;5.65;4.47;;;17.20;99.90;;;;;;4965872;28;20047;-76
2022/12/22 12:30:01;;;;;;;6.30;4.88;;;17.30;99.90;;;;;;4971753;28;20066;-76
2022/12/22 12:32:56;;;;;;;9.73;4.75;;;17.30;99.90;;;;;;4972646;28;20061;-76
2022/12/22 12:35:26;;;;;;;5.53;4.07;;;17.20;99.90;;;;;;4971602;28;20662;-76
2022/12/22 12:38:01;;;;;;;6.15;4.05;;;17.30;99.90;;;;;;4970980;28;20078;-75
2022/12/22 12:40:52;;;;;;;6.05;4.13;;;17.30;99.90;;;;;;4972681;28;20046;-76
2022/12/22 12:43:22;;;;;;;6.75;4.72;;;17.40;99.90;;;;;;4963154;28;20035;-76
2022/12/22 12:45:49;;;;;;;5.47;4.18;;;17.40;99.90;;;;;;4969791;28;20046;-76
2022/12/22 12:48:23;;;;;;;8.45;6.57;;;17.50;99.90;;;;;;4953162;28;20055;-77
2022/12/22 12:50:58;;;;;;;4.57;3.35;;;17.50;99.90;;;;;;4960668;28;20498;-76
2022/12/22 12:53:27;;;;;;;4.70;3.83;;;17.60;99.90;;;;;;4965994;28;20113;-76
2022/12/22 12:56:12;;;;;;;4.70;2.83;;;17.60;99.90;;;;;;4972409;28;20054;-76
2022/12/22 12:58:43;;;;;;;9.20;4.00;;;17.30;99.90;;;;;;4970866;28;20047;-77
2022/12/22 13:01:28;;;;;;;8.15;3.70;;;17.30;99.90;;;;;;4972483;28;20073;-75
2022/12/22 13:03:56;;;;;;;5.95;3.42;;;17.10;99.90;;;;;;4970202;28;20086;-75
2022/12/22 13:06:50;;;;;;;10.93;7.47;;;17.00;99.90;;;;;;4952274;28;20094;-75
2022/12/22 13:09:23;;;;;;;7.38;4.68;;;16.70;99.90;;;;;;4953311;28;20046;-77
2022/12/22 13:12:33;;;;;;;5.57;4.00;;;16.60;99.90;;;;;;4970500;28;20058;-76
2022/12/22 13:15:01;;;;;;;22.38;14.90;;;16.40;99.90;;;;;;4951666;29;20051;-77
2022/12/22 13:17:48;;;;;;;17.10;11.18;;;16.20;99.90;;;;;;4939009;28;20042;-76
2022/12/22 13:20:24;;;;;;;135.80;83.05;;;16.10;99.90;;;;;;4935883;29;20058;-78
2022/12/22 13:22:57;;;;;;;147.50;86.57;;;16.00;99.90;;;;;;4960012;28;20109;-77
2022/12/22 13:25:48;;;;;;;65.78;45.75;;;15.90;99.90;;;;;;4970318;28;20042;-77
2022/12/22 13:28:18;;;;;;;77.72;47.20;;;15.90;99.90;;;;;;4945720;28;20078;-76
2022/12/22 13:31:00;;;;;;;230.52;150.82;;;15.80;99.90;;;;;;4952213;28;20600;-76
2022/12/22 13:33:31;;;;;;;357.90;235.98;;;15.80;99.90;;;;;;4950830;29;20047;-78
2022/12/22 13:35:59;;;;;;;45.22;30.75;;;15.80;99.90;;;;;;4952308;28;20047;-76
2022/12/22 13:38:28;;;;;;;45.60;28.45;;;15.70;99.90;;;;;;4952618;28;20066;-76
2022/12/22 13:40:58;;;;;;;14.55;9.93;;;15.60;99.90;;;;;;4970612;28;20047;-76
2022/12/22 13:43:28;;;;;;;129.00;83.40;;;15.70;99.90;;;;;;4958102;28;20065;-77
2022/12/22 13:45:57;;;;;;;29.10;19.08;;;15.60;99.90;;;;;;4952864;28;20240;-76
2022/12/22 13:48:35;;;;;;;567.88;419.10;;;15.60;99.90;;;;;;4938053;28;20145;-76
2022/12/22 13:51:31;;;;;;;182.00;125.65;;;15.60;99.90;;;;;;4971303;28;20047;-75
2022/12/22 13:54:01;;;;;;;40.15;27.85;;;15.70;99.90;;;;;;4970521;28;20434;-76
2022/12/22 13:56:44;;;;;;;27.13;17.58;;;15.60;99.90;;;;;;4952977;28;20062;-77
2022/12/22 13:59:29;;;;;;;9.70;7.17;;;15.60;99.90;;;;;;4966723;28;20050;-76
2022/12/22 14:02:08;;;;;;;5.43;3.72;;;15.70;99.90;;;;;;4951350;28;20088;-76
2022/12/22 14:04:39;;;;;;;7.65;3.58;;;15.60;99.90;;;;;;4934337;29;20062;-76
2022/12/22 14:07:18;;;;;;;4.35;3.00;;;15.60;99.90;;;;;;4937896;28;20145;-77
2022/12/22 14:09:47;;;;;;;4.30;2.92;;;15.50;99.90;;;;;;4957903;28;20573;-77
2022/12/22 14:12:22;;;;;;;4.97;3.58;;;15.50;99.90;;;;;;4952223;28;20038;-77
2022/12/22 14:14:52;;;;;;;5.45;3.40;;;15.50;99.90;;;;;;4962674;28;20504;-77
2022/12/22 14:17:20;;;;;;;4.78;3.30;;;15.40;99.90;;;;;;4952837;28;20161;-77
2022/12/22 14:19:59;;;;;;;4.57;3.40;;;15.40;99.90;;;;;;4969869;28;20047;-77
2022/12/22 14:22:35;;;;;;;8.05;4.70;;;15.40;99.90;;;;;;4969098;28;20134;-76
2022/12/22 14:25:08;;;;;;;;;;;15.40;99.90;;;;;;4970841;28;20054;-77
2022/12/22 14:27:56;;;;;;;9.73;6.50;;;15.40;99.90;;;;;;4951853;28;19925;-79
2022/12/22 14:30:28;;;;;;;8.40;6.05;;;15.40;99.90;;;;;;4965917;28;20066;-77
2022/12/22 14:33:15;;;;;;;8.15;5.32;;;15.40;99.90;;;;;;4949067;28;20047;-76
2022/12/22 14:35:42;;;;;;;6.13;4.35;;;15.40;99.90;;;;;;4969721;28;20058;-77
2022/12/22 14:38:25;;;;;;;6.80;4.78;;;15.40;99.90;;;;;;4969377;28;20117;-77
2022/12/22 14:40:53;;;;;;;5.63;4.13;;;15.40;99.90;;;;;;4967759;28;20441;-77
2022/12/22 14:43:30;;;;;;;8.25;5.28;;;15.40;99.90;;;;;;4968738;28;20531;-77
2022/12/22 14:46:05;;;;;;;7.50;5.65;;;15.40;99.90;;;;;;4969370;28;20050;-78
2022/12/22 14:48:35;;;;;;;8.15;4.85;;;15.40;99.90;;;;;;4963304;28;20510;-79
2022/12/22 14:51:03;;;;;;;7.18;4.97;;;15.40;99.90;;;;;;4965591;28;20105;-78
2022/12/22 14:53:38;;;;;;;8.93;6.32;;;15.40;99.90;;;;;;4943806;28;20102;-79
2022/12/22 14:56:14;;;;;;;10.45;6.40;;;15.40;99.90;;;;;;4962288;28;20138;-78
2022/12/22 14:58:43;;;;;;;9.87;6.30;;;15.40;99.90;;;;;;4945549;28;20062;-79
2022/12/22 15:01:22;;;;;;;9.10;6.55;;;15.30;99.90;;;;;;4968033;28;20333;-78
2022/12/22 15:04:18;;;;;;;11.02;6.53;;;15.30;99.90;;;;;;4966689;28;20049;-77
2022/12/22 15:06:47;;;;;;;9.93;8.05;;;15.20;99.90;;;;;;4963993;28;20505;-77
2022/12/22 15:09:15;;;;;;;14.18;8.48;;;15.00;99.90;;;;;;4964991;28;20042;-78
2022/12/22 15:11:50;;;;;;;9.60;7.25;;;15.00;99.90;;;;;;4945290;28;20051;-78
2022/12/22 15:14:23;;;;;;;9.00;6.75;;;14.90;99.90;;;;;;4965931;28;20186;-78
2022/12/22 15:16:55;;;;;;;10.65;7.47;;;14.80;99.90;;;;;;4950150;28;20142;-77
2022/12/22 15:19:23;;;;;;;13.48;7.13;;;14.70;99.90;;;;;;4965671;28;20050;-77
2022/12/22 15:21:51;;;;;;;12.07;6.55;;;14.70;99.90;;;;;;4963265;28;20501;-77
2022/12/22 15:24:19;;;;;;;11.77;7.22;;;14.70;99.90;;;;;;4965267;28;20043;-77
2022/12/22 15:26:46;;;;;;;9.43;6.82;;;14.60;99.90;;;;;;4967883;28;20077;-78
2022/12/22 15:29:14;;;;;;;13.88;9.60;;;14.60;99.90;;;;;;4957946;28;20142;-78
2022/12/22 15:31:42;;;;;;;12.27;8.80;;;14.60;99.90;;;;;;4965602;28;20050;-77
2022/12/22 15:34:30;;;;;;;12.60;8.60;;;14.50;99.90;;;;;;4966117;28;20078;-77
2022/12/22 15:36:58;;;;;;;10.48;7.15;;;14.50;99.90;;;;;;4966143;28;20043;-77
2022/12/22 15:39:26;;;;;;;12.18;7.82;;;14.40;99.90;;;;;;4964403;28;20070;-76
2022/12/22 15:41:53;;;;;;;13.48;8.50;;;14.40;99.90;;;;;;4949510;29;20394;-77
2022/12/22 15:44:21;;;;;;;13.95;9.10;;;14.40;99.90;;;;;;4932376;29;20114;-78
2022/12/22 15:46:56;;;;;;;12.93;10.05;;;14.40;99.90;;;;;;4931607;29;20047;-77
2022/12/22 15:49:26;;;;;;;13.80;9.13;;;14.30;99.90;;;;;;4947318;29;20039;-77
2022/12/22 15:51:58;;;;;;;14.00;10.13;;;14.30;99.90;;;;;;4947605;29;20055;-77
2022/12/22 15:54:26;;;;;;;14.65;9.75;;;14.30;99.90;;;;;;4946732;29;20769;-75
2022/12/22 15:56:55;;;;;;;15.43;10.02;;;14.30;99.90;;;;;;4947622;29;20410;-77
2022/12/22 15:59:26;;;;;;;12.32;9.77;;;14.20;99.90;;;;;;4949420;28;20067;-75
2022/12/22 16:01:56;;;;;;;17.65;9.93;;;14.20;99.90;;;;;;4967898;28;20545;-75
2022/12/22 16:04:28;;;;;;;15.80;11.40;;;14.20;99.90;;;;;;4953897;28;20051;-75
2022/12/22 16:06:57;;;;;;;15.57;10.77;;;14.20;99.90;;;;;;4948703;29;20076;-76
2022/12/22 16:09:31;;;;;;;13.27;10.07;;;14.10;99.90;;;;;;4949767;28;20176;-76
2022/12/22 16:11:59;;;;;;;14.35;10.00;;;14.10;99.90;;;;;;4966393;28;20050;-76
2022/12/22 16:14:26;;;;;;;15.20;10.10;;;14.10;99.90;;;;;;4935909;29;20142;-76
2022/12/22 16:16:55;;;;;;;15.38;10.80;;;14.00;99.90;;;;;;4951755;28;20122;-76
2022/12/22 16:19:23;;;;;;;18.25;11.20;;;14.00;99.90;;;;;;4969160;28;20039;-77
2022/12/22 16:21:52;;;;;;;14.40;11.25;;;14.00;99.90;;;;;;4967549;28;20097;-76
2022/12/22 16:24:25;;;;;;;16.85;12.15;;;14.00;99.90;;;;;;4970415;28;20068;-76
2022/12/22 16:26:55;;;;;;;16.98;11.85;;;14.00;99.90;;;;;;4970678;28;20070;-76
2022/12/22 16:29:24;;;;;;;18.67;11.65;;;14.00;99.90;;;;;;4952418;28;20097;-76
2022/12/22 16:31:52;;;;;;;15.35;9.98;;;13.90;99.90;;;;;;4956633;28;20051;-76
2022/12/22 16:34:20;;;;;;;12.43;9.32;;;13.90;99.90;;;;;;4967069;28;20059;-76
2022/12/22 16:36:47;;;;;;;14.57;10.95;;;13.90;99.90;;;;;;4969975;28;20441;-76
2022/12/22 16:39:15;;;;;;;14.95;10.75;;;13.90;99.90;;;;;;4954941;28;20472;-76
2022/12/22 16:41:43;;;;;;;14.27;11.10;;;13.80;99.90;;;;;;4970079;28;20452;-76
2022/12/22 16:44:21;;;;;;;16.20;12.00;;;13.90;99.90;;;;;;4960054;28;20166;-76
2022/12/22 16:46:49;;;;;;;19.70;12.18;;;13.90;99.90;;;;;;4953189;28;20061;-76